createdAt,value
2023-02-24T00:02:01.430Z,94243.81
2023-02-24T00:04:32.031Z,94227.41
2023-02-24T00:07:00.252Z,94229.03
2023-02-24T00:09:30.268Z,94241.88
2023-02-24T00:12:09.024Z,94224.31
2023-02-24T00:14:38.809Z,94238.75
2023-02-24T00:17:10.056Z,94237.97
2023-02-24T00:19:38.023Z,94219.56
2023-02-24T00:22:08.038Z,94221.38
2023-02-24T00:24:35.766Z,94215.91
2023-02-24T00:27:08.132Z,94190.84
2023-02-24T00:29:37.932Z,94190.13
2023-02-24T00:32:07.785Z,94197.88
2023-02-24T00:34:36.699Z,94201.44
2023-02-24T00:37:07.098Z,94208.97
2023-02-24T00:39:35.059Z,94207.28
2023-02-24T00:42:06.588Z,94199.28
2023-02-24T00:44:46.591Z,94210.94
2023-02-24T00:47:18.632Z,94191.03
2023-02-24T00:49:46.171Z,94165.84
2023-02-24T00:52:16.823Z,94178.06
2023-02-24T00:54:45.405Z,94188.59
2023-02-24T00:57:12.675Z,94191.91
2023-02-24T00:59:40.495Z,94194.47
2023-02-24T01:02:07.677Z,94194.97
2023-02-24T01:04:35.198Z,94194.66
2023-02-24T01:07:02.018Z,94191.53
2023-02-24T01:09:31.195Z,94197.78
2023-02-24T01:12:18.149Z,94196.63
2023-02-24T01:14:49.706Z,94194.13
2023-02-24T01:17:18.631Z,94182.66
2023-02-24T01:19:49.116Z,94167.28
2023-02-24T01:22:18.955Z,94170.59
2023-02-24T01:24:46.532Z,94168.13
2023-02-24T01:27:17.463Z,94155.72
2023-02-24T01:29:45.472Z,94152.41
2023-02-24T01:32:21.343Z,94172.53
2023-02-24T01:34:52.303Z,94183.50
2023-02-24T01:37:19.762Z,94175.06
2023-02-24T01:39:47.913Z,94159.88
2023-02-24T01:42:17.136Z,94165.94
2023-02-24T01:44:48.067Z,94157.03
2023-02-24T01:47:20.813Z,94157.19
2023-02-24T01:49:52.841Z,94149.22
2023-02-24T01:52:23.942Z,94147.53
2023-02-24T01:55:01.383Z,94137.25
2023-02-24T01:57:31.442Z,94128.88
2023-02-24T02:00:11.183Z,94121.81
2023-02-24T02:02:46.547Z,94118.94
2023-02-24T02:05:15.329Z,94118.78
2023-02-24T02:07:43.539Z,94120.13
2023-02-24T02:10:12.425Z,94123.84
2023-02-24T02:12:44.791Z,94121.72
2023-02-24T02:15:14.521Z,94102.59
2023-02-24T02:18:08.008Z,94102.69
2023-02-24T02:21:02.564Z,94120.91
2023-02-24T02:23:38.029Z,94125.38
2023-02-24T02:26:26.713Z,94120.66
2023-02-24T02:29:34.305Z,94109.03
2023-02-24T02:32:32.574Z,94108.44
2023-02-24T02:35:19.022Z,94113.88
2023-02-24T02:37:56.714Z,94111.28
2023-02-24T02:40:33.403Z,94116.84
2023-02-24T02:43:41.886Z,94123.53
2023-02-24T02:46:17.699Z,94120.88
2023-02-24T02:48:54.711Z,94108.66
2023-02-24T02:51:29.114Z,94108.38
2023-02-24T02:54:04.899Z,94104.28
2023-02-24T02:56:40.714Z,94085.47
2023-02-24T02:59:12.816Z,94094.66
2023-02-24T03:01:43.916Z,94089.50
2023-02-24T03:04:17.178Z,94080.09
2023-02-24T03:06:48.684Z,94099.41
2023-02-24T03:09:22.738Z,94096.41
2023-02-24T03:11:56.254Z,94100.50
2023-02-24T03:14:29.001Z,94097.53
2023-02-24T03:16:59.148Z,94110.53
2023-02-24T03:19:37.356Z,94113.53
2023-02-24T03:22:28.336Z,94103.19
2023-02-24T03:24:55.680Z,94098.97
2023-02-24T03:27:50.610Z,94082.16
2023-02-24T03:30:26.730Z,94099.56
2023-02-24T03:33:01.295Z,94105.72
2023-02-24T03:35:34.412Z,94111.72
2023-02-24T03:38:03.133Z,94119.25
2023-02-24T03:40:33.791Z,94123.78
2023-02-24T03:43:06.222Z,94116.03
2023-02-24T03:45:38.068Z,94109.19
2023-02-24T03:48:08.219Z,94105.16
2023-02-24T03:50:36.096Z,94112.69
2023-02-24T03:53:09.351Z,94108.16
2023-02-24T03:56:00.498Z,94092.13
2023-02-24T03:58:47.591Z,94097.81
2023-02-24T04:01:25.664Z,94092.53
2023-02-24T04:04:06.099Z,94100.13
2023-02-24T04:06:55.810Z,94083.97
2023-02-24T04:10:09.455Z,94077.31
2023-02-24T04:12:50.483Z,94080.91
2023-02-24T04:15:29.721Z,94078.66
2023-02-24T04:18:01.690Z,94080.16
2023-02-24T04:20:35.864Z,94071.97
2023-02-24T04:23:11.332Z,94085.22
2023-02-24T04:25:42.575Z,94082.78
2023-02-24T04:28:11.347Z,94078.75
2023-02-24T04:30:48.444Z,94068.88
2023-02-24T04:33:15.971Z,94065.28
2023-02-24T04:35:48.415Z,94065.84
2023-02-24T04:38:15.193Z,94060.91
2023-02-24T04:40:42.619Z,94055.38
2023-02-24T04:43:09.716Z,94053.25
2023-02-24T04:45:40.400Z,94047.34
2023-02-24T04:48:12.729Z,94055.13
2023-02-24T04:50:43.070Z,94062.56
2023-02-24T04:53:16.111Z,94039.13
2023-02-24T04:55:48.862Z,94033.59
2023-02-24T04:58:21.278Z,94020.44
2023-02-24T05:00:52.827Z,94019.03
2023-02-24T05:03:21.150Z,93998.19
2023-02-24T05:05:52.000Z,93994.72
2023-02-24T05:08:19.940Z,93982.00
2023-02-24T05:10:47.918Z,94003.97
2023-02-24T05:13:28.169Z,94016.50
2023-02-24T05:15:57.540Z,94017.63
2023-02-24T05:18:24.973Z,94005.25
2023-02-24T05:21:12.765Z,94005.88
2023-02-24T05:23:44.392Z,93993.31
2023-02-24T05:26:17.664Z,93976.13
2023-02-24T05:28:49.209Z,93945.31
2023-02-24T05:31:28.295Z,93951.41
2023-02-24T05:34:01.503Z,93964.78
2023-02-24T05:36:45.943Z,93972.19
2023-02-24T05:39:19.173Z,93976.25
2023-02-24T05:41:48.698Z,93975.56
2023-02-24T05:44:23.341Z,93965.44
2023-02-24T05:46:56.784Z,93948.94
2023-02-24T05:49:27.457Z,93935.72
2023-02-24T05:51:56.255Z,93930.50
2023-02-24T05:54:24.446Z,93944.97
2023-02-24T05:56:51.477Z,93940.84
2023-02-24T05:59:21.453Z,93956.44
2023-02-24T06:01:49.707Z,93946.25
2023-02-24T06:04:39.393Z,93928.50
2023-02-24T06:07:19.239Z,93942.44
2023-02-24T06:09:50.231Z,93955.25
2023-02-24T06:12:18.794Z,93962.66
2023-02-24T06:14:45.921Z,93964.66
2023-02-24T06:17:15.164Z,93969.97
2023-02-24T06:19:43.521Z,93961.00
2023-02-24T06:22:14.537Z,93953.25
2023-02-24T06:24:44.489Z,93957.16
2023-02-24T06:27:18.080Z,93964.16
2023-02-24T06:29:50.390Z,93964.00
2023-02-24T06:32:19.097Z,93966.66
2023-02-24T06:34:46.964Z,93962.59
2023-02-24T06:37:18.372Z,93933.31
2023-02-24T06:39:46.011Z,93934.47
2023-02-24T06:42:13.756Z,93921.66
2023-02-24T06:44:41.633Z,93935.97
2023-02-24T06:47:13.525Z,93937.59
2023-02-24T06:49:41.648Z,93944.19
2023-02-24T06:52:08.784Z,93947.47
2023-02-24T06:54:36.193Z,93941.13
2023-02-24T06:57:04.231Z,93937.03
2023-02-24T06:59:31.212Z,93925.81
2023-02-24T07:02:02.341Z,93943.28
2023-02-24T07:04:29.858Z,93938.50
2023-02-24T07:07:03.767Z,93943.16
2023-02-24T07:09:31.548Z,93939.75
2023-02-24T07:11:58.978Z,93939.41
2023-02-24T07:14:30.632Z,93932.88
2023-02-24T07:16:58.545Z,93938.09
2023-02-24T07:19:29.232Z,93937.47
2023-02-24T07:22:02.437Z,93951.47
2023-02-24T07:24:36.719Z,93943.78
2023-02-24T07:27:07.916Z,93930.16
2023-02-24T07:29:36.319Z,93932.66
2023-02-24T07:32:06.242Z,93940.97
2023-02-24T07:34:33.923Z,93933.69
2023-02-24T07:37:07.894Z,93924.31
2023-02-24T07:39:37.115Z,93916.63
2023-02-24T07:42:04.867Z,93914.19
2023-02-24T07:44:41.063Z,93878.03
2023-02-24T07:47:08.410Z,93881.56
2023-02-24T07:49:36.240Z,93888.16
2023-02-24T07:52:03.684Z,93874.66
2023-02-24T07:54:30.608Z,93914.00
2023-02-24T07:56:59.708Z,93905.66
2023-02-24T07:59:32.889Z,93891.22
2023-02-24T08:02:05.150Z,93904.81
2023-02-24T08:04:34.052Z,93898.22
2023-02-24T08:07:03.892Z,93888.22
2023-02-24T08:09:45.039Z,93889.31
2023-02-24T08:12:18.196Z,93905.69
2023-02-24T08:14:51.161Z,93901.44
2023-02-24T08:17:23.507Z,93885.94
2023-02-24T08:20:12.746Z,93870.38
2023-02-24T08:22:44.045Z,93874.84
2023-02-24T08:25:18.526Z,93887.25
2023-02-24T08:28:06.778Z,93865.31
2023-02-24T08:30:39.678Z,93854.63
2023-02-24T08:33:10.640Z,93867.81
2023-02-24T08:35:45.273Z,93869.13
2023-02-24T08:38:21.077Z,93874.16
2023-02-24T08:40:53.720Z,93867.84
2023-02-24T08:43:30.106Z,93860.16
2023-02-24T08:46:01.023Z,93868.59
2023-02-24T08:48:37.613Z,93874.81
2023-02-24T08:51:22.772Z,93866.84
2023-02-24T08:53:55.150Z,93857.03
2023-02-24T08:56:35.129Z,93861.00
2023-02-24T08:59:06.141Z,93858.69
2023-02-24T09:01:39.011Z,93852.22
2023-02-24T09:04:11.256Z,93829.72
2023-02-24T09:06:40.546Z,93865.38
2023-02-24T09:09:21.378Z,93865.59
2023-02-24T09:11:56.565Z,93858.50
2023-02-24T09:14:36.505Z,93878.13
2023-02-24T09:17:11.513Z,93869.19
2023-02-24T09:19:52.248Z,93868.78
2023-02-24T09:22:28.555Z,93850.22
2023-02-24T09:25:18.145Z,93880.81
2023-02-24T09:27:52.520Z,93858.66
2023-02-24T09:30:36.046Z,93852.91
2023-02-24T09:33:07.214Z,93860.34
2023-02-24T09:35:41.833Z,93852.53
2023-02-24T09:38:08.682Z,93822.19
2023-02-24T09:40:40.266Z,93843.63
2023-02-24T09:43:17.939Z,93838.22
2023-02-24T09:46:15.170Z,93836.56
2023-02-24T09:49:17.344Z,93832.06
2023-02-24T09:51:45.109Z,93823.19
2023-02-24T09:54:24.807Z,93824.47
2023-02-24T09:57:08.415Z,93810.28
2023-02-24T10:00:01.534Z,93827.03
2023-02-24T10:02:34.315Z,93822.25
2023-02-24T10:05:38.482Z,93827.28
2023-02-24T10:08:18.116Z,93830.78
2023-02-24T10:11:05.272Z,93817.41
2023-02-24T10:13:32.941Z,93807.28
2023-02-24T10:16:06.711Z,93799.88
2023-02-24T10:19:11.787Z,93800.81
2023-02-24T10:21:49.555Z,93819.28
2023-02-24T10:24:29.912Z,93808.31
2023-02-24T10:27:25.771Z,93812.41
2023-02-24T10:30:11.350Z,93814.38
2023-02-24T10:32:59.116Z,93807.19
2023-02-24T10:35:33.835Z,93815.25
2023-02-24T10:38:05.623Z,93785.22
2023-02-24T10:40:46.798Z,93774.56
2023-02-24T10:43:20.420Z,93787.03
2023-02-24T10:45:48.169Z,93780.16
2023-02-24T10:48:40.696Z,93753.72
2023-02-24T10:51:20.410Z,93775.66
2023-02-24T10:53:53.287Z,93780.47
2023-02-24T10:56:30.694Z,93782.91
2023-02-24T10:59:21.724Z,93769.00
2023-02-24T11:02:02.981Z,93782.66
2023-02-24T11:05:04.258Z,93784.06
2023-02-24T11:07:53.485Z,93754.41
2023-02-24T11:10:26.923Z,93762.47
2023-02-24T11:13:15.363Z,93744.38
2023-02-24T11:16:06.216Z,93753.31
2023-02-24T11:18:34.001Z,93755.44
2023-02-24T11:21:05.113Z,93751.75
2023-02-24T11:23:45.410Z,93745.22
2023-02-24T11:26:18.211Z,93741.03
2023-02-24T11:29:07.233Z,93717.69
2023-02-24T11:32:08.993Z,93717.69
2023-02-24T11:34:58.210Z,93726.78
2023-02-24T11:37:38.114Z,93701.41
2023-02-24T11:40:23.166Z,93707.13
2023-02-24T11:43:07.401Z,93704.13
2023-02-24T11:45:34.296Z,93691.94
2023-02-24T11:48:15.146Z,93680.38
2023-02-24T11:50:51.110Z,93680.44
2023-02-24T11:53:21.324Z,93693.94
2023-02-24T11:55:59.233Z,93690.69
2023-02-24T11:58:32.234Z,93667.16
2023-02-24T12:01:10.166Z,93664.53
2023-02-24T12:03:54.488Z,93639.53
2023-02-24T12:06:28.966Z,93651.41
2023-02-24T12:09:03.409Z,93644.47
2023-02-24T12:11:40.757Z,93638.13
2023-02-24T12:14:31.288Z,93649.63
2023-02-24T12:17:39.977Z,93634.41
2023-02-24T12:20:21.789Z,93648.47
2023-02-24T12:22:58.298Z,93618.16
2023-02-24T12:25:50.455Z,93624.69
2023-02-24T12:28:35.041Z,93628.59
2023-02-24T12:31:23.896Z,93625.13
2023-02-24T12:33:56.877Z,93613.09
2023-02-24T12:36:45.407Z,93624.13
2023-02-24T12:39:21.882Z,93620.84
2023-02-24T12:42:03.665Z,93603.44
2023-02-24T12:44:52.041Z,93608.78
2023-02-24T12:47:57.286Z,93592.66
2023-02-24T12:50:42.047Z,93598.06
2023-02-24T12:53:31.803Z,93581.31
2023-02-24T12:56:22.016Z,93582.03
2023-02-24T12:58:56.289Z,93585.59
2023-02-24T13:01:40.948Z,93576.78
2023-02-24T13:04:33.122Z,93576.31
2023-02-24T13:07:29.967Z,93588.16
2023-02-24T13:10:03.199Z,93583.91
2023-02-24T13:12:55.780Z,93580.66
2023-02-24T13:15:25.634Z,93581.97
2023-02-24T13:17:57.698Z,93578.84
2023-02-24T13:20:31.982Z,93568.91
2023-02-24T13:23:01.252Z,93569.59
2023-02-24T13:25:34.289Z,93557.03
2023-02-24T13:28:06.251Z,93569.81
2023-02-24T13:30:38.778Z,93579.06
2023-02-24T13:33:18.042Z,93567.25
2023-02-24T13:35:47.172Z,93559.31
2023-02-24T13:38:32.405Z,93539.78
2023-02-24T13:41:34.823Z,93546.50
2023-02-24T13:44:25.057Z,93519.09
2023-02-24T13:46:58.445Z,93523.28
2023-02-24T13:49:59.141Z,93529.13
2023-02-24T13:53:03.523Z,93523.97
2023-02-24T13:55:45.293Z,93530.38
2023-02-24T13:58:27.771Z,93522.47
2023-02-24T14:01:05.122Z,93487.38
2023-02-24T14:03:33.709Z,93480.84
2023-02-24T14:06:02.431Z,93509.91
2023-02-24T14:08:42.756Z,93493.19
2023-02-24T14:11:16.079Z,93511.28
2023-02-24T14:13:49.708Z,93508.16
2023-02-24T14:16:23.904Z,93513.47
2023-02-24T14:18:56.536Z,93493.38
2023-02-24T14:21:26.989Z,93490.63
2023-02-24T14:24:24.198Z,93489.69
2023-02-24T14:26:57.153Z,93478.81
2023-02-24T14:29:32.438Z,93472.72
2023-02-24T14:31:59.982Z,93472.69
2023-02-24T14:34:30.421Z,93481.88
2023-02-24T14:36:59.246Z,93478.84
2023-02-24T14:39:29.486Z,93469.81
2023-02-24T14:42:09.150Z,93444.56
2023-02-24T14:44:42.503Z,93479.31
2023-02-24T14:47:11.674Z,93479.59
2023-02-24T14:49:39.336Z,93462.72
2023-02-24T14:52:22.319Z,93454.06
2023-02-24T14:54:57.482Z,93448.28
2023-02-24T14:57:29.279Z,93443.56
2023-02-24T15:00:10.788Z,93455.13
2023-02-24T15:02:43.848Z,93448.69
2023-02-24T15:05:11.960Z,93442.56
2023-02-24T15:07:43.395Z,93443.25
2023-02-24T15:10:21.490Z,93444.72
2023-02-24T15:13:00.714Z,93431.09
2023-02-24T15:15:35.747Z,93433.03
2023-02-24T15:18:12.500Z,93433.91
2023-02-24T15:20:40.946Z,93438.59
2023-02-24T15:23:26.597Z,93444.41
2023-02-24T15:25:53.448Z,93438.66
2023-02-24T15:28:32.373Z,93428.94
2023-02-24T15:31:02.062Z,93424.72
2023-02-24T15:33:41.999Z,93425.16
2023-02-24T15:36:21.366Z,93409.16
2023-02-24T15:38:53.541Z,93403.25
2023-02-24T15:41:20.558Z,93404.03
2023-02-24T15:43:50.186Z,93398.72
2023-02-24T15:46:26.195Z,93376.81
2023-02-24T15:48:56.006Z,93380.75
2023-02-24T15:51:32.330Z,93383.81
2023-02-24T15:54:01.390Z,93395.69
2023-02-24T15:56:28.784Z,93405.31
2023-02-24T15:58:55.569Z,93411.13
2023-02-24T16:01:22.378Z,93380.38
2023-02-24T16:03:49.812Z,93392.56
2023-02-24T16:06:22.069Z,93387.59
2023-02-24T16:08:53.041Z,93385.94
2023-02-24T16:11:26.975Z,93370.22
2023-02-24T16:13:57.863Z,93347.00
2023-02-24T16:16:26.632Z,93362.28
2023-02-24T16:18:54.401Z,93374.25
2023-02-24T16:21:21.270Z,93353.50
2023-02-24T16:23:48.806Z,93353.22
2023-02-24T16:26:19.148Z,93351.69
2023-02-24T16:28:55.485Z,93367.03
2023-02-24T16:31:25.474Z,93345.13
2023-02-24T16:33:55.852Z,93347.28
2023-02-24T16:36:28.185Z,93328.47
2023-02-24T16:38:55.780Z,93333.25
2023-02-24T16:41:24.260Z,93334.66
2023-02-24T16:43:51.416Z,93325.97
2023-02-24T16:46:22.824Z,93333.91
2023-02-24T16:48:53.596Z,93323.78
2023-02-24T16:51:22.495Z,93335.25
2023-02-24T16:53:49.289Z,93322.16
2023-02-24T16:56:16.249Z,93347.00
2023-02-24T16:58:42.999Z,93341.91
2023-02-24T17:01:18.395Z,93344.63
2023-02-24T17:03:51.155Z,93333.75
2023-02-24T17:06:20.816Z,93328.81
2023-02-24T17:08:49.781Z,93342.22
2023-02-24T17:11:21.794Z,93336.41
2023-02-24T17:13:48.664Z,93330.16
2023-02-24T17:16:15.404Z,93327.19
2023-02-24T17:18:42.144Z,93317.88
2023-02-24T17:21:13.382Z,93318.41
2023-02-24T17:23:42.505Z,93328.06
2023-02-24T17:26:13.781Z,93325.03
2023-02-24T17:28:41.060Z,93318.94
2023-02-24T17:31:08.031Z,93320.78
2023-02-24T17:33:35.120Z,93303.34
2023-02-24T17:36:01.845Z,93313.28
2023-02-24T17:38:28.742Z,93306.78
2023-02-24T17:40:57.581Z,93329.06
2023-02-24T17:43:25.008Z,93314.44
2023-02-24T17:45:53.306Z,93266.28
2023-02-24T17:48:20.846Z,93280.84
2023-02-24T17:50:48.620Z,93269.41
2023-02-24T17:53:15.834Z,93264.47
2023-02-24T17:56:01.119Z,93258.38
2023-02-24T17:58:29.061Z,93274.72
2023-02-24T18:00:56.380Z,93266.63
2023-02-24T18:03:23.503Z,93274.97
2023-02-24T18:06:04.179Z,93296.91
2023-02-24T18:08:33.987Z,93280.22
2023-02-24T18:11:01.395Z,93257.88
2023-02-24T18:13:29.560Z,93243.75
2023-02-24T18:15:56.998Z,93235.47
2023-02-24T18:18:25.315Z,93221.19
2023-02-24T18:20:52.137Z,93222.53
2023-02-24T18:23:18.992Z,93211.38
2023-02-24T18:25:45.714Z,93206.47
2023-02-24T18:28:12.474Z,93209.91
2023-02-24T18:30:40.697Z,93216.31
2023-02-24T18:33:07.615Z,93202.94
2023-02-24T18:35:34.507Z,93207.97
2023-02-24T18:38:02.798Z,93205.72
2023-02-24T18:40:29.925Z,93167.69
2023-02-24T18:42:57.148Z,93173.78
2023-02-24T18:45:24.750Z,93130.09
2023-02-24T18:47:52.400Z,93157.19
2023-02-24T18:50:19.291Z,93166.38
2023-02-24T18:52:46.118Z,93127.06
2023-02-24T18:55:12.832Z,93174.47
2023-02-24T18:57:41.047Z,93142.59
2023-02-24T19:00:12.609Z,93152.66
2023-02-24T19:02:41.075Z,93141.63
2023-02-24T19:05:08.658Z,93140.41
2023-02-24T19:07:35.819Z,93161.31
2023-02-24T19:10:02.614Z,93141.22
2023-02-24T19:12:29.339Z,93150.06
2023-02-24T19:14:56.416Z,93149.25
2023-02-24T19:17:24.124Z,93109.06
2023-02-24T19:19:50.957Z,93117.34
2023-02-24T19:22:17.686Z,93142.84
2023-02-24T19:24:44.553Z,93152.66
2023-02-24T19:27:11.509Z,93166.63
2023-02-24T19:29:38.352Z,93146.34
2023-02-24T19:32:05.411Z,93135.56
2023-02-24T19:34:32.329Z,93138.06
2023-02-24T19:36:59.124Z,93126.63
2023-02-24T19:39:26.504Z,93131.16
2023-02-24T19:41:53.488Z,93147.81
2023-02-24T19:44:20.321Z,93170.91
2023-02-24T19:46:47.171Z,93199.97
2023-02-24T19:49:14.008Z,93174.09
2023-02-24T19:51:41.776Z,93142.53
2023-02-24T19:54:13.200Z,93135.78
2023-02-24T19:56:40.699Z,93109.69
2023-02-24T19:59:08.785Z,93159.72
2023-02-24T20:01:35.719Z,93159.72
2023-02-24T20:04:03.650Z,93152.78
2023-02-24T20:06:33.585Z,93158.91
2023-02-24T20:09:00.840Z,93144.00
2023-02-24T20:11:33.269Z,93186.06
2023-02-24T20:14:00.010Z,93165.13
2023-02-24T20:16:32.014Z,93172.31
2023-02-24T20:18:58.749Z,93156.00
2023-02-24T20:21:25.933Z,93156.66
2023-02-24T20:23:53.348Z,93162.28
2023-02-24T20:26:21.783Z,93128.13
2023-02-24T20:28:49.038Z,93140.34
2023-02-24T20:31:21.111Z,93127.66
2023-02-24T20:33:49.600Z,93151.50
2023-02-24T20:36:18.548Z,93140.25
2023-02-24T20:38:45.405Z,93126.81
2023-02-24T20:41:13.119Z,93148.41
2023-02-24T20:43:40.065Z,93111.03
2023-02-24T20:46:15.485Z,93138.22
2023-02-24T20:48:43.310Z,93125.75
2023-02-24T20:51:12.672Z,93122.38
2023-02-24T20:53:54.650Z,93086.47
2023-02-24T20:56:25.013Z,93124.94
2023-02-24T20:58:54.140Z,93121.84
2023-02-24T21:01:21.194Z,93109.03
2023-02-24T21:03:48.239Z,93062.09
2023-02-24T21:06:17.171Z,93083.78
2023-02-24T21:08:44.525Z,93091.63
2023-02-24T21:11:13.545Z,93060.19
2023-02-24T21:13:44.732Z,93106.56
2023-02-24T21:16:14.040Z,93137.22
2023-02-24T21:18:42.787Z,93133.41
2023-02-24T21:21:10.621Z,93160.03
2023-02-24T21:23:39.612Z,93167.53
2023-02-24T21:26:07.730Z,93166.75
2023-02-24T21:28:35.546Z,93165.56
2023-02-24T21:31:08.973Z,93173.28
2023-02-24T21:33:36.116Z,93145.16
2023-02-24T21:36:06.761Z,93154.75
2023-02-24T21:38:34.477Z,93112.50
2023-02-24T21:41:03.360Z,93103.16
2023-02-24T21:43:30.632Z,93117.03
2023-02-24T21:46:01.418Z,93154.38
2023-02-24T21:48:28.638Z,93128.63
2023-02-24T21:51:24.757Z,93126.59
2023-02-24T21:53:55.049Z,93150.88
2023-02-24T21:56:27.575Z,93090.88
2023-02-24T21:58:58.812Z,93108.09
2023-02-24T22:01:37.619Z,93105.53
2023-02-24T22:04:08.108Z,93105.91
2023-02-24T22:06:37.124Z,93114.22
2023-02-24T22:09:05.989Z,93082.59
2023-02-24T22:11:37.822Z,93083.97
2023-02-24T22:14:09.870Z,93100.41
2023-02-24T22:16:37.549Z,93097.44
2023-02-24T22:19:04.877Z,93096.97
2023-02-24T22:21:32.362Z,93124.00
2023-02-24T22:24:02.182Z,93113.00
2023-02-24T22:26:30.879Z,93104.16
2023-02-24T22:28:59.314Z,93131.22
2023-02-24T22:31:29.912Z,93140.03
2023-02-24T22:33:57.408Z,93126.31
2023-02-24T22:36:28.017Z,93149.53
2023-02-24T22:38:56.615Z,93143.69
2023-02-24T22:41:27.286Z,93149.41
2023-02-24T22:43:54.406Z,93119.19
2023-02-24T22:46:28.276Z,93146.41
2023-02-24T22:48:56.341Z,93143.28
2023-02-24T22:51:24.383Z,93173.41
2023-02-24T22:53:51.874Z,93148.03
2023-02-24T22:56:22.264Z,93152.00
2023-02-24T22:58:50.108Z,93169.16
2023-02-24T23:01:19.739Z,93150.69
2023-02-24T23:03:46.632Z,93169.34
2023-02-24T23:06:15.968Z,93182.50
2023-02-24T23:08:45.894Z,93179.75
2023-02-24T23:11:18.356Z,93177.09
2023-02-24T23:13:47.842Z,93185.03
2023-02-24T23:16:18.666Z,93213.53
2023-02-24T23:18:50.760Z,93211.94
2023-02-24T23:21:27.643Z,93200.72
2023-02-24T23:23:58.652Z,93211.97
2023-02-24T23:26:30.385Z,93175.41
2023-02-24T23:28:57.149Z,93218.97
2023-02-24T23:31:24.508Z,93227.28
2023-02-24T23:33:52.305Z,93222.81
2023-02-24T23:36:19.082Z,93229.91
2023-02-24T23:38:45.871Z,93241.47
2023-02-24T23:41:13.677Z,93225.13
2023-02-24T23:43:40.853Z,93239.94
2023-02-24T23:46:10.480Z,93291.03
2023-02-24T23:48:38.577Z,93267.56
2023-02-24T23:51:10.945Z,93276.16
2023-02-24T23:53:39.059Z,93260.38
2023-02-24T23:56:11.295Z,93288.38
2023-02-24T23:58:37.983Z,93303.97
